sensor_id;sensor_type;location;lat;lon;timestamp;pressure;altitude;pressure_sealevel;temperature;humidity
42001;BME280;27689;48.390;10.856;2022-07-06T00:00:23;96564.88;;;17.67;57.89
42001;BME280;27689;48.390;10.856;2022-07-06T00:03:07;96572.28;;;17.71;57.86
42001;BME280;27689;48.390;10.856;2022-07-06T00:05:51;96573.28;;;17.70;57.81
42001;BME280;27689;48.390;10.856;2022-07-06T00:08:36;96574.31;;;17.69;57.63
42001;BME280;27689;48.390;10.856;2022-07-06T00:11:19;96573.84;;;17.66;58.29
42001;BME280;27689;48.390;10.856;2022-07-06T00:14:04;96576.00;;;17.62;58.19
42001;BME280;27689;48.390;10.856;2022-07-06T00:16:48;96580.47;;;17.61;58.57
42001;BME280;27689;48.390;10.856;2022-07-06T00:19:31;96586.97;;;17.59;58.81
42001;BME280;27689;48.390;10.856;2022-07-06T00:22:15;96573.06;;;17.57;58.71
42001;BME280;27689;48.390;10.856;2022-07-06T00:24:59;96577.06;;;17.53;59.65
42001;BME280;27689;48.390;10.856;2022-07-06T00:27:43;96571.13;;;17.51;60.17
42001;BME280;27689;48.390;10.856;2022-07-06T00:30:27;96574.31;;;17.46;60.23
42001;BME280;27689;48.390;10.856;2022-07-06T00:33:11;96571.84;;;17.45;60.27
42001;BME280;27689;48.390;10.856;2022-07-06T00:35:55;96567.63;;;17.36;61.55
42001;BME280;27689;48.390;10.856;2022-07-06T00:38:39;96575.25;;;17.31;60.81
42001;BME280;27689;48.390;10.856;2022-07-06T00:41:23;96564.84;;;17.29;61.12
42001;BME280;27689;48.390;10.856;2022-07-06T00:44:07;96572.13;;;17.27;61.37
42001;BME280;27689;48.390;10.856;2022-07-06T00:46:52;96565.66;;;17.30;61.09
42001;BME280;27689;48.390;10.856;2022-07-06T00:49:36;96564.97;;;17.36;60.85
42001;BME280;27689;48.390;10.856;2022-07-06T00:52:42;96564.50;;;17.32;61.87
42001;BME280;27689;48.390;10.856;2022-07-06T00:55:29;96559.06;;;17.25;61.85
42001;BME280;27689;48.390;10.856;2022-07-06T00:58:13;96558.91;;;17.27;61.87
42001;BME280;27689;48.390;10.856;2022-07-06T01:00:57;96552.78;;;17.26;62.34
42001;BME280;27689;48.390;10.856;2022-07-06T01:03:40;96560.91;;;17.25;62.31
42001;BME280;27689;48.390;10.856;2022-07-06T01:06:24;96556.31;;;17.19;63.12
42001;BME280;27689;48.390;10.856;2022-07-06T01:09:08;96552.38;;;17.15;63.30
42001;BME280;27689;48.390;10.856;2022-07-06T01:11:52;96561.16;;;17.15;63.40
42001;BME280;27689;48.390;10.856;2022-07-06T01:14:37;96561.66;;;17.11;64.03
42001;BME280;27689;48.390;10.856;2022-07-06T01:17:21;96565.47;;;17.08;64.88
42001;BME280;27689;48.390;10.856;2022-07-06T01:22:53;96572.91;;;16.90;65.87
42001;BME280;27689;48.390;10.856;2022-07-06T01:25:37;96572.28;;;16.80;65.67
42001;BME280;27689;48.390;10.856;2022-07-06T01:28:21;96567.22;;;16.62;67.22
42001;BME280;27689;48.390;10.856;2022-07-06T01:31:05;96563.91;;;16.68;66.70
42001;BME280;27689;48.390;10.856;2022-07-06T01:33:49;96565.75;;;16.68;66.63
42001;BME280;27689;48.390;10.856;2022-07-06T01:36:34;96560.44;;;16.68;67.08
42001;BME280;27689;48.390;10.856;2022-07-06T01:39:18;96559.78;;;16.66;67.00
42001;BME280;27689;48.390;10.856;2022-07-06T01:42:02;96558.13;;;16.65;67.70
42001;BME280;27689;48.390;10.856;2022-07-06T01:44:46;96553.69;;;16.65;67.56
42001;BME280;27689;48.390;10.856;2022-07-06T01:47:30;96564.56;;;16.62;67.74
42001;BME280;27689;48.390;10.856;2022-07-06T01:50:14;96561.81;;;16.47;68.51
42001;BME280;27689;48.390;10.856;2022-07-06T01:53:01;96557.72;;;16.45;68.62
42001;BME280;27689;48.390;10.856;2022-07-06T01:55:45;96561.66;;;16.49;68.33
42001;BME280;27689;48.390;10.856;2022-07-06T01:58:29;96553.72;;;16.49;68.07
42001;BME280;27689;48.390;10.856;2022-07-06T02:01:17;96558.66;;;16.52;68.79
42001;BME280;27689;48.390;10.856;2022-07-06T02:04:01;96554.88;;;16.54;68.34
42001;BME280;27689;48.390;10.856;2022-07-06T02:06:45;96549.63;;;16.46;68.36
42001;BME280;27689;48.390;10.856;2022-07-06T02:09:32;96555.59;;;16.40;69.27
42001;BME280;27689;48.390;10.856;2022-07-06T02:12:16;96547.66;;;16.40;68.83
42001;BME280;27689;48.390;10.856;2022-07-06T02:15:00;96553.00;;;16.32;70.00
42001;BME280;27689;48.390;10.856;2022-07-06T02:17:44;96548.88;;;16.30;70.19
42001;BME280;27689;48.390;10.856;2022-07-06T02:20:28;96554.63;;;16.33;71.28
42001;BME280;27689;48.390;10.856;2022-07-06T02:23:12;96554.00;;;16.31;71.20
42001;BME280;27689;48.390;10.856;2022-07-06T02:25:56;96555.47;;;16.26;71.51
42001;BME280;27689;48.390;10.856;2022-07-06T02:28:40;96556.97;;;16.28;71.85
42001;BME280;27689;48.390;10.856;2022-07-06T02:31:24;96547.56;;;16.26;72.07
42001;BME280;27689;48.390;10.856;2022-07-06T02:34:08;96554.50;;;16.27;72.64
42001;BME280;27689;48.390;10.856;2022-07-06T02:36:52;96554.00;;;16.23;73.02
42001;BME280;27689;48.390;10.856;2022-07-06T02:39:36;96551.38;;;16.23;72.54
42001;BME280;27689;48.390;10.856;2022-07-06T02:42:19;96544.75;;;16.19;73.19
42001;BME280;27689;48.390;10.856;2022-07-06T02:45:04;96550.09;;;16.11;73.66
42001;BME280;27689;48.390;10.856;2022-07-06T02:47:48;96554.38;;;16.12;72.69
42001;BME280;27689;48.390;10.856;2022-07-06T02:50:32;96562.97;;;16.14;73.22
42001;BME280;27689;48.390;10.856;2022-07-06T02:53:17;96557.16;;;16.18;73.13
42001;BME280;27689;48.390;10.856;2022-07-06T02:56:01;96554.69;;;16.17;73.18
42001;BME280;27689;48.390;10.856;2022-07-06T02:58:45;96569.41;;;16.03;74.25
42001;BME280;27689;48.390;10.856;2022-07-06T03:01:29;96565.66;;;15.98;74.60
42001;BME280;27689;48.390;10.856;2022-07-06T03:04:13;96569.63;;;16.02;73.95
42001;BME280;27689;48.390;10.856;2022-07-06T03:06:57;96580.00;;;16.03;73.68
42001;BME280;27689;48.390;10.856;2022-07-06T03:09:41;96587.28;;;15.93;74.67
42001;BME280;27689;48.390;10.856;2022-07-06T03:12:25;96588.16;;;15.85;75.31
42001;BME280;27689;48.390;10.856;2022-07-06T03:15:09;96594.59;;;15.83;75.84
42001;BME280;27689;48.390;10.856;2022-07-06T03:17:53;96589.97;;;15.85;75.96
42001;BME280;27689;48.390;10.856;2022-07-06T03:20:37;96589.63;;;15.80;76.73
42001;BME280;27689;48.390;10.856;2022-07-06T03:23:21;96590.47;;;15.72;78.40
42001;BME280;27689;48.390;10.856;2022-07-06T03:26:05;96593.75;;;15.74;77.80
42001;BME280;27689;48.390;10.856;2022-07-06T03:28:49;96585.84;;;15.82;78.00
42001;BME280;27689;48.390;10.856;2022-07-06T03:31:33;96596.41;;;15.82;78.62
42001;BME280;27689;48.390;10.856;2022-07-06T03:34:19;96597.06;;;15.84;78.61
42001;BME280;27689;48.390;10.856;2022-07-06T03:37:03;96596.75;;;15.88;78.76
42001;BME280;27689;48.390;10.856;2022-07-06T03:39:47;96601.66;;;15.91;77.90
42001;BME280;27689;48.390;10.856;2022-07-06T03:42:30;96599.69;;;15.93;76.40
42001;BME280;27689;48.390;10.856;2022-07-06T03:45:14;96600.19;;;15.96;77.22
42001;BME280;27689;48.390;10.856;2022-07-06T03:47:58;96603.47;;;15.98;77.50
42001;BME280;27689;48.390;10.856;2022-07-06T03:50:42;96605.63;;;15.95;78.14
42001;BME280;27689;48.390;10.856;2022-07-06T03:53:26;96602.81;;;15.96;76.76
42001;BME280;27689;48.390;10.856;2022-07-06T03:56:10;96604.63;;;15.96;77.53
42001;BME280;27689;48.390;10.856;2022-07-06T03:59:12;96602.66;;;15.98;77.67
42001;BME280;27689;48.390;10.856;2022-07-06T04:01:57;96599.50;;;15.94;77.99
42001;BME280;27689;48.390;10.856;2022-07-06T04:04:41;96596.72;;;15.96;77.55
42001;BME280;27689;48.390;10.856;2022-07-06T04:07:25;96598.84;;;16.00;77.44
42001;BME280;27689;48.390;10.856;2022-07-06T04:10:09;96602.94;;;16.03;76.60
42001;BME280;27689;48.390;10.856;2022-07-06T04:12:53;96597.03;;;16.01;76.45
42001;BME280;27689;48.390;10.856;2022-07-06T04:15:37;96607.25;;;16.04;76.33
42001;BME280;27689;48.390;10.856;2022-07-06T04:18:21;96607.44;;;15.94;76.78
42001;BME280;27689;48.390;10.856;2022-07-06T04:21:05;96609.94;;;15.96;76.79
42001;BME280;27689;48.390;10.856;2022-07-06T04:23:49;96617.19;;;15.94;76.96
42001;BME280;27689;48.390;10.856;2022-07-06T04:26:33;96621.16;;;15.90;77.21
42001;BME280;27689;48.390;10.856;2022-07-06T04:29:17;96618.84;;;15.95;76.42
42001;BME280;27689;48.390;10.856;2022-07-06T04:32:01;96620.50;;;15.96;75.73
42001;BME280;27689;48.390;10.856;2022-07-06T04:34:45;96629.25;;;15.96;75.72
42001;BME280;27689;48.390;10.856;2022-07-06T04:37:29;96620.16;;;15.99;75.45
42001;BME280;27689;48.390;10.856;2022-07-06T04:40:13;96630.25;;;15.95;75.38
42001;BME280;27689;48.390;10.856;2022-07-06T04:42:57;96623.78;;;15.98;75.06
42001;BME280;27689;48.390;10.856;2022-07-06T04:45:41;96627.09;;;16.00;74.23
42001;BME280;27689;48.390;10.856;2022-07-06T04:48:24;96633.38;;;15.99;74.35
42001;BME280;27689;48.390;10.856;2022-07-06T04:51:08;96626.75;;;16.03;74.56
42001;BME280;27689;48.390;10.856;2022-07-06T04:53:52;96636.69;;;16.01;74.15
42001;BME280;27689;48.390;10.856;2022-07-06T04:56:36;96633.06;;;16.02;74.67
42001;BME280;27689;48.390;10.856;2022-07-06T04:59:20;96630.03;;;16.05;73.76
42001;BME280;27689;48.390;10.856;2022-07-06T05:02:04;96632.19;;;16.09;73.65
42001;BME280;27689;48.390;10.856;2022-07-06T05:04:48;96630.06;;;16.13;73.40
42001;BME280;27689;48.390;10.856;2022-07-06T05:07:32;96632.69;;;16.13;73.46
42001;BME280;27689;48.390;10.856;2022-07-06T05:10:17;96631.19;;;16.18;72.27
42001;BME280;27689;48.390;10.856;2022-07-06T05:13:01;96626.72;;;16.19;71.75
42001;BME280;27689;48.390;10.856;2022-07-06T05:15:45;96631.34;;;16.25;71.65
42001;BME280;27689;48.390;10.856;2022-07-06T05:18:29;96639.94;;;16.27;71.70
42001;BME280;27689;48.390;10.856;2022-07-06T05:21:13;96640.88;;;16.34;70.66
42001;BME280;27689;48.390;10.856;2022-07-06T05:23:57;96644.03;;;16.38;71.08
42001;BME280;27689;48.390;10.856;2022-07-06T05:26:41;96640.88;;;16.42;72.40
42001;BME280;27689;48.390;10.856;2022-07-06T05:29:25;96649.47;;;16.44;71.13
42001;BME280;27689;48.390;10.856;2022-07-06T05:32:09;96650.59;;;16.50;71.01
42001;BME280;27689;48.390;10.856;2022-07-06T05:34:53;96642.50;;;16.51;70.88
42001;BME280;27689;48.390;10.856;2022-07-06T05:37:37;96648.59;;;16.52;71.20
42001;BME280;27689;48.390;10.856;2022-07-06T05:40:21;96660.16;;;16.59;71.48
42001;BME280;27689;48.390;10.856;2022-07-06T05:43:05;96655.03;;;16.66;70.65
42001;BME280;27689;48.390;10.856;2022-07-06T05:45:49;96652.53;;;16.72;70.72
42001;BME280;27689;48.390;10.856;2022-07-06T05:48:33;96658.13;;;16.77;69.64
42001;BME280;27689;48.390;10.856;2022-07-06T05:51:36;96667.22;;;16.83;69.48
42001;BME280;27689;48.390;10.856;2022-07-06T05:54:20;96665.72;;;16.88;69.89
42001;BME280;27689;48.390;10.856;2022-07-06T05:57:04;96661.53;;;16.94;69.94
42001;BME280;27689;48.390;10.856;2022-07-06T05:59:48;96669.44;;;17.02;69.03
42001;BME280;27689;48.390;10.856;2022-07-06T06:02:39;96672.22;;;17.09;69.01
42001;BME280;27689;48.390;10.856;2022-07-06T06:05:23;96667.38;;;17.20;67.78
42001;BME280;27689;48.390;10.856;2022-07-06T06:08:07;96668.31;;;17.27;65.21
42001;BME280;27689;48.390;10.856;2022-07-06T06:10:52;96662.59;;;17.39;63.31
42001;BME280;27689;48.390;10.856;2022-07-06T06:13:36;96662.97;;;17.36;63.23
42001;BME280;27689;48.390;10.856;2022-07-06T06:16:20;96666.44;;;17.36;63.95
42001;BME280;27689;48.390;10.856;2022-07-06T06:19:04;96665.72;;;17.42;62.19
42001;BME280;27689;48.390;10.856;2022-07-06T06:21:48;96667.13;;;17.53;62.60
42001;BME280;27689;48.390;10.856;2022-07-06T06:24:32;96670.09;;;17.58;63.04
42001;BME280;27689;48.390;10.856;2022-07-06T06:27:16;96666.22;;;17.69;62.93
42001;BME280;27689;48.390;10.856;2022-07-06T06:30:00;96664.63;;;17.82;61.50
42001;BME280;27689;48.390;10.856;2022-07-06T06:32:44;96670.88;;;17.89;61.61
42001;BME280;27689;48.390;10.856;2022-07-06T06:35:28;96661.75;;;17.92;61.23
42001;BME280;27689;48.390;10.856;2022-07-06T06:38:13;96661.19;;;17.96;61.41
42001;BME280;27689;48.390;10.856;2022-07-06T06:40:57;96668.44;;;18.03;63.10
42001;BME280;27689;48.390;10.856;2022-07-06T06:43:41;96674.47;;;18.11;60.70
42001;BME280;27689;48.390;10.856;2022-07-06T06:46:25;96672.94;;;18.17;61.09
42001;BME280;27689;48.390;10.856;2022-07-06T06:49:09;96674.25;;;18.21;61.02
42001;BME280;27689;48.390;10.856;2022-07-06T06:51:52;96670.84;;;18.27;61.05
42001;BME280;27689;48.390;10.856;2022-07-06T06:54:36;96672.78;;;18.33;60.43
42001;BME280;27689;48.390;10.856;2022-07-06T06:57:20;96669.03;;;18.42;60.90
42001;BME280;27689;48.390;10.856;2022-07-06T07:00:05;96672.91;;;18.54;60.00
42001;BME280;27689;48.390;10.856;2022-07-06T07:02:49;96676.97;;;18.65;59.27
42001;BME280;27689;48.390;10.856;2022-07-06T07:05:32;96675.38;;;18.71;58.26
42001;BME280;27689;48.390;10.856;2022-07-06T07:08:16;96673.38;;;18.73;58.38
42001;BME280;27689;48.390;10.856;2022-07-06T07:11:00;96671.19;;;18.76;60.00
42001;BME280;27689;48.390;10.856;2022-07-06T07:13:44;96680.69;;;18.85;58.39
42001;BME280;27689;48.390;10.856;2022-07-06T07:16:28;96677.50;;;18.90;58.92
42001;BME280;27689;48.390;10.856;2022-07-06T07:19:12;96665.38;;;19.02;58.11
42001;BME280;27689;48.390;10.856;2022-07-06T07:21:56;96672.25;;;19.11;57.35
42001;BME280;27689;48.390;10.856;2022-07-06T07:24:40;96669.66;;;19.18;58.59
42001;BME280;27689;48.390;10.856;2022-07-06T07:27:25;96672.03;;;19.27;58.11
42001;BME280;27689;48.390;10.856;2022-07-06T07:30:09;96672.09;;;19.34;57.08
42001;BME280;27689;48.390;10.856;2022-07-06T07:32:52;96675.06;;;19.46;58.18
42001;BME280;27689;48.390;10.856;2022-07-06T07:35:37;96679.88;;;19.50;55.78
42001;BME280;27689;48.390;10.856;2022-07-06T07:38:21;96670.69;;;19.74;57.16
42001;BME280;27689;48.390;10.856;2022-07-06T07:41:05;96667.28;;;19.80;55.31
42001;BME280;27689;48.390;10.856;2022-07-06T07:43:49;96660.38;;;19.86;56.55
42001;BME280;27689;48.390;10.856;2022-07-06T07:46:33;96666.00;;;19.97;55.83
42001;BME280;27689;48.390;10.856;2022-07-06T07:49:17;96662.63;;;20.10;57.37
42001;BME280;27689;48.390;10.856;2022-07-06T07:52:01;96666.84;;;20.26;56.08
42001;BME280;27689;48.390;10.856;2022-07-06T07:54:45;96661.63;;;20.39;56.91
42001;BME280;27689;48.390;10.856;2022-07-06T07:57:29;96662.72;;;20.51;58.27
42001;BME280;27689;48.390;10.856;2022-07-06T08:00:13;96664.91;;;20.69;54.44
42001;BME280;27689;48.390;10.856;2022-07-06T08:02:57;96659.84;;;20.81;53.76
42001;BME280;27689;48.390;10.856;2022-07-06T08:05:41;96659.31;;;20.98;54.99
42001;BME280;27689;48.390;10.856;2022-07-06T08:08:25;96665.13;;;21.15;54.88
42001;BME280;27689;48.390;10.856;2022-07-06T08:11:09;96659.16;;;21.13;53.09
42001;BME280;27689;48.390;10.856;2022-07-06T08:13:53;96657.09;;;21.08;52.25
42001;BME280;27689;48.390;10.856;2022-07-06T08:16:37;96660.81;;;21.14;52.51
42001;BME280;27689;48.390;10.856;2022-07-06T08:19:21;96658.22;;;21.27;53.25
42001;BME280;27689;48.390;10.856;2022-07-06T08:22:05;96664.63;;;21.46;54.70
42001;BME280;27689;48.390;10.856;2022-07-06T08:24:50;96664.06;;;21.64;54.64
42001;BME280;27689;48.390;10.856;2022-07-06T08:27:34;96664.28;;;21.89;54.51
42001;BME280;27689;48.390;10.856;2022-07-06T08:30:18;96662.03;;;21.99;52.82
42001;BME280;27689;48.390;10.856;2022-07-06T08:33:02;96654.03;;;21.86;50.34
42001;BME280;27689;48.390;10.856;2022-07-06T08:35:46;96654.44;;;21.89;50.58
42001;BME280;27689;48.390;10.856;2022-07-06T08:38:30;96658.78;;;22.03;51.37
42001;BME280;27689;48.390;10.856;2022-07-06T08:41:17;96658.38;;;22.20;50.30
42001;BME280;27689;48.390;10.856;2022-07-06T08:44:01;96660.84;;;22.14;50.60
42001;BME280;27689;48.390;10.856;2022-07-06T08:46:45;96664.13;;;22.36;53.02
42001;BME280;27689;48.390;10.856;2022-07-06T08:49:32;96665.94;;;22.42;48.99
42001;BME280;27689;48.390;10.856;2022-07-06T08:52:17;96659.97;;;22.60;51.11
42001;BME280;27689;48.390;10.856;2022-07-06T08:55:01;96661.19;;;22.64;48.33
42001;BME280;27689;48.390;10.856;2022-07-06T08:57:46;96664.50;;;22.53;47.29
42001;BME280;27689;48.390;10.856;2022-07-06T09:00:31;96661.41;;;22.56;48.77
42001;BME280;27689;48.390;10.856;2022-07-06T09:03:15;96661.19;;;22.77;49.60
42001;BME280;27689;48.390;10.856;2022-07-06T09:06:01;96669.97;;;22.98;48.62
42001;BME280;27689;48.390;10.856;2022-07-06T09:08:45;96662.94;;;23.10;46.24
42001;BME280;27689;48.390;10.856;2022-07-06T09:11:30;96658.75;;;23.27;47.94
42001;BME280;27689;48.390;10.856;2022-07-06T09:14:14;96668.34;;;23.41;47.36
42001;BME280;27689;48.390;10.856;2022-07-06T09:17:05;96658.97;;;23.26;44.11
42001;BME280;27689;48.390;10.856;2022-07-06T09:19:49;96663.28;;;23.20;45.73
42001;BME280;27689;48.390;10.856;2022-07-06T09:22:33;96672.81;;;23.47;47.86
42001;BME280;27689;48.390;10.856;2022-07-06T09:25:17;96660.28;;;23.86;45.68
42001;BME280;27689;48.390;10.856;2022-07-06T09:28:01;96666.50;;;23.80;43.51
42001;BME280;27689;48.390;10.856;2022-07-06T09:30:46;96670.72;;;23.63;43.62
42001;BME280;27689;48.390;10.856;2022-07-06T09:33:29;96671.75;;;23.62;43.17
42001;BME280;27689;48.390;10.856;2022-07-06T09:36:13;96668.75;;;23.83;43.63
42001;BME280;27689;48.390;10.856;2022-07-06T09:38:57;96669.78;;;24.07;43.19
42001;BME280;27689;48.390;10.856;2022-07-06T09:41:41;96674.03;;;24.46;46.30
42001;BME280;27689;48.390;10.856;2022-07-06T09:44:29;96672.34;;;24.27;42.20
42001;BME280;27689;48.390;10.856;2022-07-06T09:47:13;96672.97;;;24.29;43.54
42001;BME280;27689;48.390;10.856;2022-07-06T09:49:57;96669.91;;;24.25;43.79
42001;BME280;27689;48.390;10.856;2022-07-06T09:52:53;96669.16;;;24.61;42.64
42001;BME280;27689;48.390;10.856;2022-07-06T09:55:36;96668.16;;;24.99;41.26
42001;BME280;27689;48.390;10.856;2022-07-06T09:58:20;96666.47;;;24.79;41.42
42001;BME280;27689;48.390;10.856;2022-07-06T10:01:05;96672.44;;;24.63;39.44
42001;BME280;27689;48.390;10.856;2022-07-06T10:03:49;96677.78;;;24.13;41.01
42001;BME280;27689;48.390;10.856;2022-07-06T10:06:33;96677.06;;;24.00;39.79
42001;BME280;27689;48.390;10.856;2022-07-06T10:09:18;96666.47;;;24.11;41.34
42001;BME280;27689;48.390;10.856;2022-07-06T10:12:02;96664.25;;;24.58;42.98
42001;BME280;27689;48.390;10.856;2022-07-06T10:14:46;96667.63;;;24.90;42.55
42001;BME280;27689;48.390;10.856;2022-07-06T10:17:30;96664.59;;;25.05;38.88
42001;BME280;27689;48.390;10.856;2022-07-06T10:20:14;96662.97;;;25.04;39.80
42001;BME280;27689;48.390;10.856;2022-07-06T10:23:00;96659.06;;;25.00;41.25
42001;BME280;27689;48.390;10.856;2022-07-06T10:25:44;96656.53;;;24.86;40.00
42001;BME280;27689;48.390;10.856;2022-07-06T10:28:29;96661.66;;;24.88;42.79
42001;BME280;27689;48.390;10.856;2022-07-06T10:31:14;96660.91;;;24.81;41.20
42001;BME280;27689;48.390;10.856;2022-07-06T10:34:03;96650.44;;;24.98;41.70
42001;BME280;27689;48.390;10.856;2022-07-06T10:36:49;96655.03;;;25.27;41.21
42001;BME280;27689;48.390;10.856;2022-07-06T10:39:35;96652.22;;;25.52;39.11
42001;BME280;27689;48.390;10.856;2022-07-06T10:42:38;96653.16;;;25.57;38.29
42001;BME280;27689;48.390;10.856;2022-07-06T10:50:56;96640.38;;;25.11;38.54
42001;BME280;27689;48.390;10.856;2022-07-06T10:53:43;96647.56;;;25.29;38.96
42001;BME280;27689;48.390;10.856;2022-07-06T10:56:38;96649.06;;;25.25;38.35
42001;BME280;27689;48.390;10.856;2022-07-06T10:59:22;96650.97;;;25.06;40.18
42001;BME280;27689;48.390;10.856;2022-07-06T11:02:11;96649.13;;;24.82;38.03
42001;BME280;27689;48.390;10.856;2022-07-06T11:04:54;96647.31;;;25.01;38.38
42001;BME280;27689;48.390;10.856;2022-07-06T11:07:51;96648.91;;;24.83;39.09
42001;BME280;27689;48.390;10.856;2022-07-06T11:10:47;96652.28;;;24.97;38.31
42001;BME280;27689;48.390;10.856;2022-07-06T11:13:31;96644.22;;;25.34;37.65
42001;BME280;27689;48.390;10.856;2022-07-06T11:16:16;96640.31;;;25.00;38.06
42001;BME280;27689;48.390;10.856;2022-07-06T11:19:01;96642.00;;;25.12;39.37
42001;BME280;27689;48.390;10.856;2022-07-06T11:22:04;96643.28;;;25.40;39.63
42001;BME280;27689;48.390;10.856;2022-07-06T11:24:48;96637.75;;;25.53;37.60
42001;BME280;27689;48.390;10.856;2022-07-06T11:27:35;96640.78;;;25.56;36.08
42001;BME280;27689;48.390;10.856;2022-07-06T11:30:20;96629.38;;;25.91;35.97
42001;BME280;27689;48.390;10.856;2022-07-06T11:33:04;96628.03;;;26.12;36.29
42001;BME280;27689;48.390;10.856;2022-07-06T11:35:48;96623.44;;;26.12;36.43
42001;BME280;27689;48.390;10.856;2022-07-06T11:38:32;96621.69;;;26.06;37.16
42001;BME280;27689;48.390;10.856;2022-07-06T11:41:16;96623.28;;;25.84;37.64
42001;BME280;27689;48.390;10.856;2022-07-06T11:44:00;96622.72;;;25.52;36.98
42001;BME280;27689;48.390;10.856;2022-07-06T11:46:44;96622.34;;;25.48;37.09
42001;BME280;27689;48.390;10.856;2022-07-06T11:49:28;96623.22;;;25.30;37.63
42001;BME280;27689;48.390;10.856;2022-07-06T11:52:12;96628.50;;;25.37;36.73
42001;BME280;27689;48.390;10.856;2022-07-06T11:54:57;96621.75;;;25.16;36.87
42001;BME280;27689;48.390;10.856;2022-07-06T11:57:41;96618.38;;;24.84;37.95
42001;BME280;27689;48.390;10.856;2022-07-06T12:00:25;96616.47;;;24.73;38.85
42001;BME280;27689;48.390;10.856;2022-07-06T12:03:09;96614.16;;;24.77;38.07
42001;BME280;27689;48.390;10.856;2022-07-06T12:05:53;96607.16;;;25.12;38.17
42001;BME280;27689;48.390;10.856;2022-07-06T12:08:40;96602.94;;;25.35;40.78
42001;BME280;27689;48.390;10.856;2022-07-06T12:11:25;96601.09;;;25.47;36.59
42001;BME280;27689;48.390;10.856;2022-07-06T12:14:14;96591.88;;;25.73;36.94
42001;BME280;27689;48.390;10.856;2022-07-06T12:17:03;96596.91;;;25.81;35.30
42001;BME280;27689;48.390;10.856;2022-07-06T12:19:51;96600.50;;;25.63;37.11
42001;BME280;27689;48.390;10.856;2022-07-06T12:22:35;96593.84;;;25.66;36.84
42001;BME280;27689;48.390;10.856;2022-07-06T12:25:29;96591.63;;;25.74;35.79
42001;BME280;27689;48.390;10.856;2022-07-06T12:28:23;96593.66;;;25.90;35.99
42001;BME280;27689;48.390;10.856;2022-07-06T12:31:07;96591.34;;;26.06;34.20
42001;BME280;27689;48.390;10.856;2022-07-06T12:33:57;96589.56;;;25.99;33.75
42001;BME280;27689;48.390;10.856;2022-07-06T12:36:51;96591.94;;;26.08;35.11
42001;BME280;27689;48.390;10.856;2022-07-06T12:39:45;96577.31;;;26.27;34.37
42001;BME280;27689;48.390;10.856;2022-07-06T12:42:29;96574.06;;;26.25;34.70
42001;BME280;27689;48.390;10.856;2022-07-06T12:45:13;96580.59;;;26.64;34.72
42001;BME280;27689;48.390;10.856;2022-07-06T12:47:58;96581.34;;;26.88;34.01
42001;BME280;27689;48.390;10.856;2022-07-06T12:50:42;96576.13;;;26.81;33.48
42001;BME280;27689;48.390;10.856;2022-07-06T12:53:26;96569.06;;;26.92;32.57
42001;BME280;27689;48.390;10.856;2022-07-06T12:56:10;96586.91;;;26.58;33.26
42001;BME280;27689;48.390;10.856;2022-07-06T12:58:58;96584.13;;;26.29;32.55
42001;BME280;27689;48.390;10.856;2022-07-06T13:01:46;96569.38;;;26.09;31.93
42001;BME280;27689;48.390;10.856;2022-07-06T13:04:30;96582.00;;;26.08;34.10
42001;BME280;27689;48.390;10.856;2022-07-06T13:07:18;96583.50;;;25.92;32.23
42001;BME280;27689;48.390;10.856;2022-07-06T13:10:10;96580.09;;;25.85;32.61
42001;BME280;27689;48.390;10.856;2022-07-06T13:12:54;96573.75;;;25.68;32.68
42001;BME280;27689;48.390;10.856;2022-07-06T13:15:41;96582.69;;;26.27;32.84
42001;BME280;27689;48.390;10.856;2022-07-06T13:18:24;96570.34;;;26.38;31.50
42001;BME280;27689;48.390;10.856;2022-07-06T13:21:08;96576.25;;;26.63;33.17
42001;BME280;27689;48.390;10.856;2022-07-06T13:23:52;96570.97;;;26.80;31.61
42001;BME280;27689;48.390;10.856;2022-07-06T13:26:36;96572.06;;;26.44;31.96
42001;BME280;27689;48.390;10.856;2022-07-06T13:29:20;96568.09;;;26.46;31.75
42001;BME280;27689;48.390;10.856;2022-07-06T13:31:50;96567.19;;;26.41;31.29
42001;BME280;27689;48.390;10.856;2022-07-06T13:34:33;96551.94;;;26.58;35.70
42001;BME280;27689;48.390;10.856;2022-07-06T13:37:19;96560.56;;;26.83;33.28
42001;BME280;27689;48.390;10.856;2022-07-06T13:40:04;96565.38;;;26.58;32.45
42001;BME280;27689;48.390;10.856;2022-07-06T13:42:48;96576.63;;;26.55;33.37
42001;BME280;27689;48.390;10.856;2022-07-06T13:45:32;96567.63;;;26.49;33.05
42001;BME280;27689;48.390;10.856;2022-07-06T13:48:15;96565.75;;;26.61;33.02
42001;BME280;27689;48.390;10.856;2022-07-06T13:50:59;96556.22;;;26.94;33.09
42001;BME280;27689;48.390;10.856;2022-07-06T13:53:43;96554.84;;;27.20;32.83
42001;BME280;27689;48.390;10.856;2022-07-06T13:56:28;96555.31;;;27.17;32.96
42001;BME280;27689;48.390;10.856;2022-07-06T13:59:11;96557.47;;;26.91;31.75
42001;BME280;27689;48.390;10.856;2022-07-06T14:01:56;96548.16;;;26.82;31.97
42001;BME280;27689;48.390;10.856;2022-07-06T14:04:39;96549.25;;;26.58;33.18
42001;BME280;27689;48.390;10.856;2022-07-06T14:07:23;96564.38;;;26.36;32.89
42001;BME280;27689;48.390;10.856;2022-07-06T14:10:08;96548.84;;;26.38;33.49
42001;BME280;27689;48.390;10.856;2022-07-06T14:12:52;96550.00;;;26.42;34.01
42001;BME280;27689;48.390;10.856;2022-07-06T14:15:35;96545.56;;;26.47;34.46
42001;BME280;27689;48.390;10.856;2022-07-06T14:18:19;96547.91;;;26.55;33.43
42001;BME280;27689;48.390;10.856;2022-07-06T14:21:03;96548.13;;;26.54;33.19
42001;BME280;27689;48.390;10.856;2022-07-06T14:23:47;96558.56;;;26.39;33.69
42001;BME280;27689;48.390;10.856;2022-07-06T14:26:32;96543.34;;;26.32;33.43
42001;BME280;27689;48.390;10.856;2022-07-06T14:29:16;96541.94;;;26.42;35.04